Time;durP1;ratioP1;P1;durP2;ratioP2;P2;SDS_P1;SDS_P2;PMS_P1;PMS_P2;Temp;Humidity;BMP_temperature;BMP_pressure;BME280_temperature;BME280_humidity;BME280_pressure;Samples;Min_cycle;Max_cycle;Signal;HPM_P1;HPM_P2
2022/09/09 00:02:54;;;;;;;5.60;2.22;;;17.50;73.80;;;;;;9186927;19;20017;-68
2022/09/09 00:06:09;;;;;;;4.13;1.90;;;17.50;73.90;;;;;;9185292;19;20078;-67
2022/09/09 00:09:17;;;;;;;3.45;1.75;;;17.50;74.00;;;;;;9182448;19;20019;-68
2022/09/09 00:12:34;;;;;;;1.88;1.35;;;17.50;74.00;;;;;;9184509;19;20019;-69
2022/09/09 00:15:45;;;;;;;2.45;1.60;;;17.50;74.10;;;;;;9185323;19;20021;-68
2022/09/09 00:18:58;;;;;;;4.95;1.90;;;17.50;74.10;;;;;;9186543;19;20129;-67
2022/09/09 00:22:17;;;;;;;3.40;1.43;;;17.50;74.20;;;;;;9185056;19;20078;-69
2022/09/09 00:25:30;;;;;;;5.45;1.45;;;17.50;74.30;;;;;;9185586;19;20010;-67
2022/09/09 00:28:44;;;;;;;7.18;1.60;;;17.50;74.30;;;;;;9185264;19;20013;-68
2022/09/09 00:31:49;;;;;;;3.70;1.70;;;17.50;74.40;;;;;;9183582;19;20047;-68
2022/09/09 00:34:56;;;;;;;2.80;1.35;;;17.40;74.20;;;;;;9185165;19;20014;-66
2022/09/09 00:38:12;;;;;;;3.92;1.67;;;17.40;74.30;;;;;;9179917;19;20010;-68
2022/09/09 00:41:24;;;;;;;8.15;2.47;;;17.40;74.30;;;;;;9183552;19;20010;-68
2022/09/09 00:44:35;;;;;;;1.40;1.30;;;17.40;74.30;;;;;;9182275;19;20048;-67
2022/09/09 00:47:46;;;;;;;3.72;1.30;;;17.40;74.50;;;;;;9183743;19;20483;-68
2022/09/09 00:50:58;;;;;;;3.25;1.33;;;17.40;74.50;;;;;;9183426;19;20025;-66
2022/09/09 00:54:31;;;;;;;4.35;1.50;;;17.30;74.50;;;;;;9182038;19;20082;-69
2022/09/09 00:57:37;;;;;;;7.20;2.53;;;17.30;74.70;;;;;;9181522;19;20048;-67
2022/09/09 01:00:48;;;;;;;3.13;1.35;;;17.30;74.60;;;;;;9183381;19;20018;-68
2022/09/09 01:03:59;;;;;;;3.30;1.50;;;17.30;74.70;;;;;;9183504;19;20026;-69
2022/09/09 01:07:10;;;;;;;2.80;1.45;;;17.30;74.70;;;;;;9182326;19;20046;-67
2022/09/09 01:10:28;;;;;;;4.20;1.85;;;17.30;74.80;;;;;;9179185;19;20058;-67
2022/09/09 01:13:37;;;;;;;4.72;1.88;;;17.20;74.70;;;;;;9180213;19;20474;-65
2022/09/09 01:16:49;;;;;;;6.18;2.42;;;17.20;74.70;;;;;;9181151;19;20348;-67
2022/09/09 01:20:08;;;;;;;5.65;2.25;;;17.20;74.80;;;;;;9181357;19;20050;-66
2022/09/09 01:23:46;;;;;;;6.28;2.10;;;17.20;75.00;;;;;;9177504;19;20079;-67
2022/09/09 01:27:05;;;;;;;5.38;1.92;;;17.20;75.10;;;;;;9178396;19;20018;-69
2022/09/09 01:30:13;;;;;;;3.83;1.90;;;17.20;75.00;;;;;;9182451;19;20022;-69
2022/09/09 01:33:20;;;;;;;4.43;2.05;;;17.10;75.00;;;;;;9179390;19;20035;-69
2022/09/09 01:36:33;;;;;;;5.10;2.58;;;17.10;75.10;;;;;;9177694;19;20340;-68
2022/09/09 01:39:40;;;;;;;3.60;2.17;;;17.00;75.20;;;;;;9181179;19;20014;-69
2022/09/09 01:42:50;;;;;;;3.70;2.60;;;17.00;75.10;;;;;;9180149;19;20029;-68
2022/09/09 01:45:58;;;;;;;10.75;2.60;;;17.00;75.20;;;;;;9182535;19;20479;-68
2022/09/09 01:49:04;;;;;;;3.33;2.22;;;17.00;75.30;;;;;;9181443;19;20029;-68
2022/09/09 01:52:09;;;;;;;9.90;2.47;;;17.00;75.30;;;;;;9178987;19;20044;-68
2022/09/09 01:55:16;;;;;;;5.60;2.97;;;16.90;75.30;;;;;;9177543;19;20025;-68
2022/09/09 01:58:34;;;;;;;7.68;2.55;;;16.90;75.40;;;;;;9170236;19;20070;-68
2022/09/09 02:01:51;;;;;;;2.78;2.47;;;16.90;75.60;;;;;;9172424;19;20022;-67
2022/09/09 02:05:02;;;;;;;3.38;2.70;;;16.90;75.60;;;;;;9172802;19;20018;-67
2022/09/09 02:08:10;;;;;;;3.60;2.58;;;16.80;75.50;;;;;;9173869;19;20094;-64
2022/09/09 02:11:33;;;;;;;3.03;2.58;;;16.80;75.70;;;;;;9173401;19;20062;-69
2022/09/09 02:14:57;;;;;;;4.85;3.13;;;16.80;75.60;;;;;;9169253;19;20021;-68
2022/09/09 02:18:09;;;;;;;5.35;2.45;;;16.80;75.70;;;;;;9170519;19;20019;-69
2022/09/09 02:21:16;;;;;;;4.40;2.38;;;16.70;75.70;;;;;;9171780;19;20011;-67
2022/09/09 02:24:22;;;;;;;3.17;2.08;;;16.70;75.70;;;;;;9173287;19;20046;-68
2022/09/09 02:27:37;;;;;;;4.78;2.28;;;16.70;75.80;;;;;;9170449;19;20022;-68
2022/09/09 02:30:48;;;;;;;7.93;2.30;;;16.70;75.80;;;;;;9175214;19;20019;-68
2022/09/09 02:34:00;;;;;;;5.10;2.75;;;16.70;75.90;;;;;;9176984;19;20018;-67
2022/09/09 02:37:06;;;;;;;5.15;2.38;;;16.60;75.80;;;;;;9173466;19;20043;-67
2022/09/09 02:40:15;;;;;;;6.15;2.35;;;16.60;76.50;;;;;;9178689;19;20019;-68
2022/09/09 02:43:24;;;;;;;4.32;2.00;;;16.60;75.90;;;;;;9177907;19;20074;-66
2022/09/09 02:46:54;;;;;;;5.95;2.28;;;16.60;76.50;;;;;;9178723;19;20418;-68
2022/09/09 02:50:12;;;;;;;4.50;2.10;;;16.60;76.20;;;;;;9178228;19;20021;-68
2022/09/09 02:53:20;;;;;;;8.32;2.35;;;16.60;76.10;;;;;;9176193;19;20052;-68
2022/09/09 02:56:33;;;;;;;8.15;2.40;;;16.50;76.00;;;;;;9178415;19;20014;-67
2022/09/09 02:59:39;;;;;;;5.63;3.28;;;16.50;76.00;;;;;;9177382;19;20530;-69
2022/09/09 03:02:47;;;;;;;2.50;2.10;;;16.50;76.00;;;;;;9171600;19;20041;-69
2022/09/09 03:05:52;;;;;;;3.40;2.53;;;16.50;76.20;;;;;;9170571;19;20111;-67
2022/09/09 03:08:57;;;;;;;6.47;2.25;;;16.50;76.20;;;;;;9175534;19;20011;-69
2022/09/09 03:12:04;;;;;;;3.03;2.47;;;16.40;76.20;;;;;;9177483;19;20022;-64
2022/09/09 03:15:13;;;;;;;9.07;2.70;;;16.40;76.20;;;;;;9177229;19;20053;-67
2022/09/09 03:18:21;;;;;;;5.05;2.80;;;16.40;76.30;;;;;;9178852;19;20026;-67
2022/09/09 03:21:29;;;;;;;5.90;2.60;;;16.40;76.40;;;;;;9178793;19;20485;-69
2022/09/09 03:24:34;;;;;;;4.55;2.10;;;16.30;76.30;;;;;;9177786;19;20018;-69
2022/09/09 03:27:41;;;;;;;6.55;2.45;;;16.40;76.40;;;;;;9176546;19;20014;-67
2022/09/09 03:30:48;;;;;;;10.55;2.55;;;16.30;76.40;;;;;;9180870;19;20018;-67
2022/09/09 03:33:57;;;;;;;3.90;2.35;;;16.30;76.40;;;;;;9184078;19;20018;-68
2022/09/09 03:37:05;;;;;;;5.40;3.15;;;16.30;76.50;;;;;;9181610;19;20025;-69
2022/09/09 03:40:12;;;;;;;3.05;2.60;;;16.30;76.50;;;;;;9185005;19;20033;-70
2022/09/09 03:43:17;;;;;;;2.35;2.10;;;16.20;76.60;;;;;;9179993;19;20014;-68
2022/09/09 03:46:24;;;;;;;3.88;2.30;;;16.20;76.60;;;;;;9174736;19;20018;-67
2022/09/09 03:49:31;;;;;;;2.75;2.38;;;16.20;76.60;;;;;;9179345;19;20021;-67
2022/09/09 03:52:37;;;;;;;3.58;2.17;;;16.10;76.60;;;;;;9177422;19;20015;-68
2022/09/09 03:55:47;;;;;;;2.83;2.20;;;16.10;76.70;;;;;;9176466;19;20022;-67
2022/09/09 03:58:52;;;;;;;4.00;2.17;;;16.10;76.70;;;;;;9181836;19;20019;-67
2022/09/09 04:01:58;;;;;;;4.15;2.15;;;16.10;76.80;;;;;;9177474;19;20079;-68
2022/09/09 04:05:07;;;;;;;2.75;2.03;;;16.10;76.80;;;;;;9175838;19;20026;-67
2022/09/09 04:08:14;;;;;;;2.92;2.05;;;16.10;76.90;;;;;;9177218;19;20015;-68
2022/09/09 04:11:20;;;;;;;2.30;1.65;;;16.00;76.80;;;;;;9177892;19;20098;-68
2022/09/09 04:14:28;;;;;;;3.45;2.00;;;16.00;76.90;;;;;;9175439;19;20475;-68
2022/09/09 04:17:36;;;;;;;4.85;2.22;;;16.00;76.90;;;;;;9176912;19;20606;-67
2022/09/09 04:20:44;;;;;;;6.85;3.20;;;16.00;76.90;;;;;;9174826;19;20021;-69
2022/09/09 04:23:49;;;;;;;3.17;2.03;;;16.00;77.00;;;;;;9175603;19;20014;-67
2022/09/09 04:26:55;;;;;;;5.03;2.88;;;15.90;76.90;;;;;;9175626;19;20087;-69
2022/09/09 04:30:00;;;;;;;4.90;2.60;;;15.90;77.00;;;;;;9178123;19;20023;-70
2022/09/09 04:33:09;;;;;;;4.43;2.40;;;15.90;77.00;;;;;;9174989;19;20010;-69
2022/09/09 04:36:18;;;;;;;5.10;2.58;;;15.90;77.10;;;;;;9170734;19;20026;-69
2022/09/09 04:39:23;;;;;;;6.38;3.33;;;15.80;77.10;;;;;;9173886;19;20018;-67
2022/09/09 04:42:28;;;;;;;7.97;2.95;;;15.90;77.20;;;;;;9173633;19;20475;-70
2022/09/09 04:45:33;;;;;;;5.50;3.05;;;15.80;77.10;;;;;;9175768;19;20029;-69
2022/09/09 04:48:39;;;;;;;3.90;2.60;;;15.80;77.20;;;;;;9176226;19;20014;-69
2022/09/09 04:51:50;;;;;;;3.40;2.38;;;15.80;77.30;;;;;;9182470;19;20497;-69
2022/09/09 04:54:56;;;;;;;4.35;2.83;;;15.80;77.30;;;;;;9182265;19;20026;-69
2022/09/09 04:58:05;;;;;;;6.63;3.13;;;15.80;77.40;;;;;;9182300;19;20074;-69
2022/09/09 05:01:12;;;;;;;5.10;3.10;;;15.80;77.40;;;;;;9183693;19;20022;-69
2022/09/09 05:04:19;;;;;;;5.80;2.85;;;15.80;77.40;;;;;;9181993;19;20093;-69
2022/09/09 05:07:28;;;;;;;5.88;3.08;;;15.80;77.50;;;;;;9181545;19;20019;-69
2022/09/09 05:10:34;;;;;;;5.50;3.20;;;15.80;77.60;;;;;;9180649;19;20014;-70
2022/09/09 05:13:39;;;;;;;10.63;3.30;;;15.80;77.60;;;;;;9183158;19;20029;-69
2022/09/09 05:16:47;;;;;;;5.07;2.83;;;15.80;77.60;;;;;;9182419;19;20014;-67
2022/09/09 05:19:53;;;;;;;5.65;3.08;;;15.80;77.70;;;;;;9179669;19;20044;-70
2022/09/09 05:23:00;;;;;;;6.50;2.95;;;15.80;78.40;;;;;;9171793;19;20022;-68
2022/09/09 05:26:08;;;;;;;3.60;2.88;;;15.80;77.80;;;;;;9171844;19;20022;-69
2022/09/09 05:29:13;;;;;;;6.03;3.17;;;15.80;77.90;;;;;;9172405;19;20033;-68
2022/09/09 05:32:19;;;;;;;5.18;3.10;;;15.80;77.90;;;;;;9175432;19;20034;-69
2022/09/09 05:35:26;;;;;;;8.70;3.78;;;15.80;77.90;;;;;;9173292;19;20018;-68
2022/09/09 05:38:34;;;;;;;6.38;3.40;;;15.80;78.00;;;;;;9169864;19;20512;-65
2022/09/09 05:41:40;;;;;;;5.32;2.70;;;15.80;78.10;;;;;;9172757;19;20055;-67
2022/09/09 05:44:45;;;;;;;5.63;3.10;;;15.90;78.10;;;;;;9172059;19;20026;-68
2022/09/09 05:47:55;;;;;;;6.60;3.20;;;15.90;78.20;;;;;;9173209;19;20019;-68
2022/09/09 05:51:01;;;;;;;10.18;3.20;;;15.90;78.30;;;;;;9175050;19;20018;-69
2022/09/09 05:54:09;;;;;;;9.75;3.83;;;15.90;78.20;;;;;;9179274;19;20018;-68
2022/09/09 05:57:19;;;;;;;5.78;3.03;;;15.90;78.30;;;;;;9179238;19;20074;-69
2022/09/09 06:00:26;;;;;;;5.40;3.30;;;15.90;78.30;;;;;;9179559;19;20014;-69
2022/09/09 06:03:31;;;;;;;6.65;4.05;;;16.00;78.40;;;;;;9179257;19;20018;-68
2022/09/09 06:06:39;;;;;;;9.02;3.17;;;16.00;78.50;;;;;;9177369;19;20352;-68
2022/09/09 06:09:54;;;;;;;;;;;16.00;78.50;;;;;;9177575;19;20025;-68
2022/09/09 06:12:59;;;;;;;7.90;3.22;;;16.00;78.40;;;;;;9179182;19;19934;-69
2022/09/09 06:16:04;;;;;;;9.80;3.90;;;16.10;78.20;;;;;;9176955;19;20044;-68
2022/09/09 06:19:12;;;;;;;5.45;3.13;;;16.10;78.30;;;;;;9180473;19;20795;-68
2022/09/09 06:22:17;;;;;;;8.60;3.00;;;16.10;78.50;;;;;;9179227;19;20513;-68
2022/09/09 06:25:25;;;;;;;9.93;3.28;;;16.10;78.50;;;;;;9180804;19;20011;-68
2022/09/09 06:28:30;;;;;;;7.47;3.30;;;16.20;78.60;;;;;;9179008;19;20089;-68
2022/09/09 06:31:37;;;;;;;7.80;3.15;;;16.20;78.60;;;;;;9171458;19;20061;-68
2022/09/09 06:34:51;;;;;;;4.82;2.90;;;16.20;78.70;;;;;;9177164;19;20018;-69
2022/09/09 06:37:58;;;;;;;6.60;3.95;;;16.30;78.80;;;;;;9173561;19;20014;-69
2022/09/09 06:41:07;;;;;;;7.15;3.33;;;16.30;78.80;;;;;;9177965;19;20007;-69
2022/09/09 06:44:13;;;;;;;12.02;3.30;;;16.30;78.90;;;;;;9181730;19;20015;-69
2022/09/09 06:47:19;;;;;;;12.50;3.42;;;16.40;78.90;;;;;;9187145;19;20022;-68
2022/09/09 06:50:25;;;;;;;8.80;2.97;;;16.40;79.00;;;;;;9186043;19;20022;-66
2022/09/09 06:53:33;;;;;;;6.63;3.10;;;16.40;78.90;;;;;;9186941;19;20496;-69
2022/09/09 06:56:42;;;;;;;12.30;3.55;;;16.50;79.00;;;;;;9184324;19;20011;-69
2022/09/09 06:59:55;;;;;;;5.55;2.88;;;16.50;79.00;;;;;;9186928;19;20647;-68
2022/09/09 07:03:00;;;;;;;10.77;3.40;;;16.60;79.00;;;;;;9183292;19;20021;-67
2022/09/09 07:06:05;;;;;;;6.38;3.33;;;16.60;79.00;;;;;;9179554;19;20021;-68
2022/09/09 07:09:12;;;;;;;8.18;3.28;;;16.60;79.00;;;;;;9176485;19;20015;-70
2022/09/09 07:12:22;;;;;;;7.95;3.25;;;16.70;79.10;;;;;;9174598;19;20034;-66
2022/09/09 07:15:33;;;;;;;4.65;2.65;;;16.70;79.20;;;;;;9176674;19;20023;-68
2022/09/09 07:18:38;;;;;;;8.18;3.22;;;16.80;79.20;;;;;;9171443;19;20023;-68
2022/09/09 07:21:44;;;;;;;8.45;2.70;;;16.80;79.20;;;;;;9172481;19;20370;-68
2022/09/09 07:24:52;;;;;;;12.40;2.90;;;16.90;79.20;;;;;;9168801;19;20364;-67
2022/09/09 07:28:00;;;;;;;11.38;2.90;;;17.00;79.20;;;;;;9170452;19;20353;-69
2022/09/09 07:31:05;;;;;;;8.68;2.80;;;17.00;79.20;;;;;;9170913;19;20086;-70
2022/09/09 07:34:12;;;;;;;6.97;1.95;;;17.10;79.20;;;;;;9173237;19;20021;-66
2022/09/09 07:37:18;;;;;;;8.80;2.55;;;17.20;79.10;;;;;;9163278;19;20458;-67
2022/09/09 07:40:24;;;;;;;18.30;3.60;;;17.20;79.10;;;;;;9174082;19;20018;-66
2022/09/09 07:43:33;;;;;;;12.10;2.97;;;17.30;79.10;;;;;;9175611;19;20015;-65
2022/09/09 07:46:39;;;;;;;4.88;2.35;;;17.40;79.10;;;;;;9175843;19;20030;-67
2022/09/09 07:49:46;;;;;;;10.70;2.53;;;17.40;79.00;;;;;;9178903;19;20028;-68
2022/09/09 07:52:55;;;;;;;9.77;2.33;;;17.50;79.00;;;;;;9179172;19;20015;-68
2022/09/09 07:56:06;;;;;;;9.73;2.33;;;17.60;79.10;;;;;;9171520;19;20007;-65
2022/09/09 07:59:14;;;;;;;15.88;2.55;;;17.60;79.10;;;;;;9173687;19;20355;-68
2022/09/09 08:02:21;;;;;;;8.50;3.45;;;17.70;79.10;;;;;;9176177;19;20486;-68
2022/09/09 08:05:27;;;;;;;14.35;2.60;;;17.80;79.10;;;;;;9172560;19;20030;-65
2022/09/09 08:08:32;;;;;;;18.85;3.22;;;17.90;79.10;;;;;;9172849;19;20023;-66
2022/09/09 08:11:38;;;;;;;11.75;2.25;;;18.10;79.10;;;;;;9177465;19;20505;-68
2022/09/09 08:14:46;;;;;;;7.30;1.92;;;18.20;79.10;;;;;;9179314;19;20026;-68
2022/09/09 08:17:51;;;;;;;8.57;2.20;;;18.30;78.90;;;;;;9177832;19;20502;-69
2022/09/09 08:20:56;;;;;;;5.78;2.13;;;18.40;78.80;;;;;;9174930;19;20018;-69
2022/09/09 08:24:04;;;;;;;7.80;2.10;;;18.50;78.70;;;;;;9172823;19;20103;-70
2022/09/09 08:27:09;;;;;;;10.43;1.63;;;18.60;78.60;;;;;;9175803;19;20102;-68
2022/09/09 08:30:18;;;;;;;12.80;2.15;;;18.70;78.50;;;;;;9177632;19;20025;-67
2022/09/09 08:33:24;;;;;;;10.00;2.03;;;18.80;78.40;;;;;;9176354;19;20015;-68
2022/09/09 08:36:33;;;;;;;11.38;2.35;;;18.90;78.30;;;;;;9173456;19;20031;-68
2022/09/09 08:39:38;;;;;;;7.93;1.92;;;19.00;78.10;;;;;;9183100;19;20010;-69
2022/09/09 08:42:48;;;;;;;11.18;2.05;;;19.10;78.10;;;;;;9179746;19;20021;-67
2022/09/09 08:46:03;;;;;;;13.48;2.75;;;19.20;78.00;;;;;;9181029;19;20010;-68
2022/09/09 08:49:25;;;;;;;10.50;2.55;;;19.20;77.80;;;;;;9181224;19;20014;-68
2022/09/09 08:52:33;;;;;;;9.82;2.05;;;19.30;77.60;;;;;;9176784;19;20026;-70
2022/09/09 08:55:43;;;;;;;8.45;1.90;;;19.40;77.50;;;;;;9179471;19;20022;-70
2022/09/09 08:58:51;;;;;;;9.40;1.80;;;19.40;77.30;;;;;;9181774;19;20022;-69
2022/09/09 09:02:19;;;;;;;12.20;2.45;;;19.40;77.20;;;;;;9180308;19;20017;-68
2022/09/09 09:05:34;;;;;;;6.35;1.90;;;19.50;77.10;;;;;;9178605;19;20519;-70
2022/09/09 09:08:47;;;;;;;10.23;2.20;;;19.50;77.00;;;;;;9164146;19;20065;-70
2022/09/09 09:11:56;;;;;;;15.52;3.28;;;19.50;76.90;;;;;;9180632;19;20489;-68
2022/09/09 09:15:02;;;;;;;9.35;1.52;;;19.50;76.90;;;;;;9175635;19;20435;-69
2022/09/09 09:18:13;;;;;;;7.53;1.98;;;19.50;76.80;;;;;;9172187;19;20028;-68
2022/09/09 09:21:24;;;;;;;10.60;2.40;;;19.60;76.90;;;;;;9172252;19;20018;-69
2022/09/09 09:24:38;;;;;;;12.77;1.70;;;19.70;76.90;;;;;;9174197;19;20023;-69
2022/09/09 09:27:49;;;;;;;9.75;1.75;;;19.80;76.90;;;;;;9172338;19;20057;-69
2022/09/09 09:30:58;;;;;;;14.05;1.95;;;19.90;76.70;;;;;;9172302;19;20018;-66
2022/09/09 09:34:06;;;;;;;8.73;1.83;;;20.10;76.50;;;;;;9172172;19;20021;-67
2022/09/09 09:37:19;;;;;;;8.10;2.10;;;20.20;76.20;;;;;;9166123;19;20482;-68
2022/09/09 09:40:25;;;;;;;14.43;1.60;;;20.30;76.00;;;;;;9174102;19;20026;-70
2022/09/09 09:43:33;;;;;;;11.20;1.92;;;20.40;75.70;;;;;;9168593;19;20814;-69
2022/09/09 09:46:41;;;;;;;13.70;1.70;;;20.50;75.40;;;;;;9170408;19;20108;-70
2022/09/09 09:50:01;;;;;;;6.25;1.95;;;20.50;75.30;;;;;;9174665;19;20021;-70
2022/09/09 09:53:23;;;;;;;14.50;1.88;;;20.60;74.90;;;;;;9172161;19;20015;-68
2022/09/09 09:56:32;;;;;;;7.75;1.63;;;20.60;74.70;;;;;;9169724;19;20006;-70
2022/09/09 09:59:41;;;;;;;6.80;2.15;;;20.60;74.70;;;;;;9172290;19;20019;-68
2022/09/09 10:02:54;;;;;;;8.40;1.48;;;20.60;74.70;;;;;;9176380;19;20365;-69
2022/09/09 10:06:06;;;;;;;6.90;1.75;;;20.60;74.60;;;;;;9178707;19;20023;-71
2022/09/09 10:09:24;;;;;;;10.77;1.67;;;20.70;74.50;;;;;;9177243;19;20085;-70
2022/09/09 10:12:48;;;;;;;7.32;1.55;;;20.70;74.30;;;;;;9179976;19;20487;-68
2022/09/09 10:16:06;;;;;;;9.93;1.40;;;20.80;74.00;;;;;;9178829;19;20019;-68
2022/09/09 10:19:16;;;;;;;9.02;1.17;;;20.90;74.00;;;;;;9184214;19;20030;-68
2022/09/09 10:22:29;;;;;;;9.23;1.30;;;21.00;73.90;;;;;;9183395;19;20033;-67
2022/09/09 10:25:47;;;;;;;3.60;1.15;;;21.10;73.70;;;;;;9183374;19;20022;-68
2022/09/09 10:29:08;;;;;;;8.18;1.70;;;21.20;73.40;;;;;;9182348;19;20359;-67
2022/09/09 10:32:33;;;;;;;6.78;1.42;;;21.30;73.20;;;;;;9181134;19;20018;-67
2022/09/09 10:35:45;;;;;;;9.02;1.73;;;21.50;72.90;;;;;;9174442;19;20029;-67
2022/09/09 10:39:00;;;;;;;9.40;1.73;;;21.60;72.90;;;;;;9180691;19;20029;-67
2022/09/09 10:42:09;;;;;;;3.60;0.90;;;21.70;72.60;;;;;;9167858;19;20022;-66
2022/09/09 10:45:22;;;;;;;7.97;2.28;;;21.70;72.50;;;;;;9151388;19;20033;-67
2022/09/09 10:48:50;;;;;;;7.55;2.05;;;21.80;72.20;;;;;;9174265;19;20056;-67
2022/09/09 10:52:05;;;;;;;9.00;1.30;;;21.90;71.90;;;;;;9185380;19;20018;-68
2022/09/09 10:55:14;;;;;;;;;;;21.90;71.80;;;;;;9180984;19;20022;-66
2022/09/09 10:58:25;;;;;;;7.30;1.33;;;22.00;71.90;;;;;;9177146;19;19923;-67
2022/09/09 11:01:40;;;;;;;5.35;1.00;;;22.00;71.80;;;;;;9177177;19;20122;-66
2022/09/09 11:04:50;;;;;;;13.23;1.35;;;22.00;71.50;;;;;;9175925;19;20023;-67
2022/09/09 11:08:00;;;;;;;5.90;0.95;;;22.00;71.50;;;;;;9179708;19;20014;-69
2022/09/09 11:11:17;;;;;;;7.78;1.73;;;22.00;71.40;;;;;;9169835;19;20432;-68
2022/09/09 11:14:29;;;;;;;7.20;1.75;;;22.00;71.20;;;;;;9171818;19;20653;-67
2022/09/09 11:17:46;;;;;;;7.05;1.10;;;22.10;71.30;;;;;;9172079;19;20053;-65
2022/09/09 11:20:55;;;;;;;4.38;1.15;;;22.10;70.90;;;;;;9174465;19;20492;-65
2022/09/09 11:24:05;;;;;;;6.43;1.30;;;22.20;70.80;;;;;;9172943;19;20019;-68
2022/09/09 11:27:17;;;;;;;5.55;1.27;;;22.20;70.50;;;;;;9169726;19;20074;-70
2022/09/09 11:30:26;;;;;;;7.40;1.80;;;22.30;70.30;;;;;;9170732;19;20127;-68
2022/09/09 11:34:18;;;;;;;9.73;1.38;;;22.30;70.40;;;;;;9177294;19;20018;-69
2022/09/09 11:37:51;;;;;;;8.07;1.48;;;22.40;69.90;;;;;;9176033;19;20022;-70
2022/09/09 11:41:03;;;;;;;3.63;0.95;;;22.50;69.70;;;;;;9171420;19;20015;-70
2022/09/09 11:44:20;;;;;;;16.63;1.80;;;22.50;69.80;;;;;;9179478;19;20125;-67
2022/09/09 11:47:29;;;;;;;6.97;1.35;;;22.60;70.60;;;;;;9179760;19;20023;-67
2022/09/09 11:50:37;;;;;;;9.13;1.52;;;22.60;70.20;;;;;;9174762;19;20109;-68
2022/09/09 11:53:52;;;;;;;7.70;1.80;;;22.50;70.40;;;;;;9170944;19;20022;-64
2022/09/09 11:56:57;;;;;;;4.68;1.30;;;22.50;70.70;;;;;;9173435;19;20018;-68
2022/09/09 12:00:07;;;;;;;4.55;1.00;;;22.50;70.80;;;;;;9175939;19;20406;-67
2022/09/09 12:03:39;;;;;;;9.23;1.42;;;22.50;70.90;;;;;;9178728;19;20022;-69
2022/09/09 12:06:46;;;;;;;8.50;1.92;;;22.50;70.90;;;;;;9178302;19;20026;-68
2022/09/09 12:09:56;;;;;;;7.70;1.35;;;22.50;71.00;;;;;;9176751;19;20013;-69
2022/09/09 12:13:11;;;;;;;5.78;1.30;;;22.50;70.90;;;;;;9178313;19;20104;-68
2022/09/09 12:16:37;;;;;;;3.47;1.33;;;22.50;70.80;;;;;;9178044;19;20077;-68
2022/09/09 12:19:42;;;;;;;3.47;0.88;;;22.50;70.60;;;;;;9170754;19;20010;-67
2022/09/09 12:23:06;;;;;;;6.38;1.35;;;22.50;70.60;;;;;;9177212;19;20021;-68
2022/09/09 12:26:24;;;;;;;6.35;1.30;;;22.50;70.30;;;;;;9178185;19;20019;-69
2022/09/09 12:29:38;;;;;;;6.10;1.20;;;22.50;70.30;;;;;;9175734;19;20525;-69
2022/09/09 12:32:46;;;;;;;;;;;22.40;70.10;;;;;;9178784;19;20082;-69
2022/09/09 12:35:57;;;;;;;4.70;1.10;;;22.40;70.30;;;;;;9169343;19;19922;-68
2022/09/09 12:39:17;;;;;;;5.72;1.00;;;22.40;70.20;;;;;;9174031;19;20082;-69
2022/09/09 12:42:24;;;;;;;9.27;1.10;;;22.30;69.80;;;;;;9174823;19;20129;-67
2022/09/09 12:45:33;;;;;;;4.80;1.10;;;22.30;69.90;;;;;;9177744;19;20098;-69
2022/09/09 12:48:44;;;;;;;3.78;0.98;;;22.20;69.70;;;;;;9177003;19;20520;-69
2022/09/09 12:51:49;;;;;;;4.95;1.00;;;22.20;69.60;;;;;;9176728;19;20127;-69
2022/09/09 12:54:54;;;;;;;7.10;1.20;;;22.20;69.60;;;;;;9176602;19;20025;-68
2022/09/09 12:58:00;;;;;;;6.82;1.05;;;22.10;69.50;;;;;;9174801;19;20042;-67
2022/09/09 13:01:08;;;;;;;2.03;0.93;;;22.10;69.40;;;;;;9176308;19;20015;-69
2022/09/09 13:04:23;;;;;;;3.90;0.90;;;22.10;69.40;;;;;;9213753;19;20067;-69
2022/09/09 13:07:27;;;;;;;3.50;1.23;;;22.10;69.10;;;;;;9215233;19;20706;-68
2022/09/09 13:10:33;;;;;;;;;;;22.10;69.20;;;;;;9214482;19;20039;-68
2022/09/09 13:13:53;;;;;;;4.25;0.90;;;22.10;69.20;;;;;;9206073;19;19922;-68
2022/09/09 13:16:59;;;;;;;6.40;1.02;;;22.10;69.00;;;;;;9209710;19;20115;-70
2022/09/09 13:20:06;;;;;;;2.63;1.00;;;22.10;68.90;;;;;;9208406;19;20570;-68
2022/09/09 13:23:14;;;;;;;2.75;1.27;;;22.00;68.90;;;;;;9202807;19;20018;-69
2022/09/09 13:26:27;;;;;;;5.82;1.40;;;22.00;68.80;;;;;;9206410;19;20074;-69
2022/09/09 13:29:32;;;;;;;3.03;0.93;;;22.00;68.80;;;;;;9212481;19;20022;-68
2022/09/09 13:32:35;;;;;;;7.95;0.95;;;21.90;69.00;;;;;;9214086;19;20353;-68
2022/09/09 13:35:51;;;;;;;7.65;1.52;;;21.80;69.20;;;;;;9207100;19;20118;-67
2022/09/09 13:38:59;;;;;;;5.60;1.27;;;21.80;69.50;;;;;;9214275;19;20596;-67
2022/09/09 13:42:04;;;;;;;2.28;0.70;;;21.70;69.50;;;;;;9211747;19;20086;-68
2022/09/09 13:45:20;;;;;;;3.85;0.82;;;21.60;69.70;;;;;;9212401;19;20044;-69
2022/09/09 13:48:24;;;;;;;3.17;0.80;;;21.50;69.90;;;;;;9215095;19;20653;-68
2022/09/09 13:51:42;;;;;;;10.32;1.30;;;21.30;70.00;;;;;;9214388;19;20022;-69
2022/09/09 13:54:49;;;;;;;4.15;1.55;;;21.30;70.30;;;;;;9214241;19;20018;-67
2022/09/09 13:57:54;;;;;;;5.22;1.50;;;21.20;70.40;;;;;;9212286;19;20067;-68
2022/09/09 14:00:57;;;;;;;6.55;1.20;;;21.10;70.50;;;;;;9211927;19;20025;-66
2022/09/09 14:04:01;;;;;;;1.27;1.17;;;21.00;70.70;;;;;;9211250;19;20010;-69
2022/09/09 14:07:07;;;;;;;6.15;1.20;;;20.90;70.90;;;;;;9213567;19;20022;-67
2022/09/09 14:10:12;;;;;;;4.68;1.13;;;20.80;71.00;;;;;;9210156;19;20022;-68
2022/09/09 14:13:15;;;;;;;5.38;1.10;;;20.70;71.20;;;;;;9206645;19;20475;-69
2022/09/09 14:16:20;;;;;;;5.00;0.90;;;20.60;71.40;;;;;;9177447;19;20031;-68
2022/09/09 14:19:23;;;;;;;6.40;1.38;;;20.60;71.60;;;;;;9174911;19;20014;-67
2022/09/09 14:22:29;;;;;;;6.07;1.23;;;20.50;71.80;;;;;;9176828;19;20018;-69
2022/09/09 14:25:33;;;;;;;5.18;1.05;;;20.50;72.10;;;;;;9176752;19;20089;-68
2022/09/09 14:28:40;;;;;;;4.88;0.88;;;20.50;72.10;;;;;;9174073;19;20094;-68
2022/09/09 14:32:00;;;;;;;6.38;1.40;;;20.50;72.30;;;;;;9176494;19;20666;-68
2022/09/09 14:35:05;;;;;;;4.93;1.00;;;20.50;72.30;;;;;;9172415;19;20384;-69
2022/09/09 14:38:11;;;;;;;2.67;1.00;;;20.50;72.30;;;;;;9177940;19;20074;-67
2022/09/09 14:41:22;;;;;;;2.67;0.90;;;20.50;72.30;;;;;;9176537;19;20045;-68
2022/09/09 14:44:26;;;;;;;3.42;1.00;;;20.60;72.30;;;;;;9174017;19;20014;-67
2022/09/09 14:47:30;;;;;;;11.45;3.00;;;20.60;72.30;;;;;;9175985;19;20063;-69
2022/09/09 14:50:34;;;;;;;6.78;1.25;;;20.70;72.40;;;;;;9176792;19;20023;-69
2022/09/09 14:53:40;;;;;;;7.53;1.45;;;20.70;72.20;;;;;;9175567;19;20102;-67
2022/09/09 14:56:44;;;;;;;9.85;1.65;;;20.70;72.10;;;;;;9174407;19;20022;-68
2022/09/09 14:59:50;;;;;;;6.30;1.20;;;20.70;72.00;;;;;;9177381;19;20015;-68
2022/09/09 15:02:54;;;;;;;3.50;1.30;;;20.70;72.00;;;;;;9175470;19;20763;-69
2022/09/09 15:05:59;;;;;;;4.10;1.27;;;20.70;72.00;;;;;;9176164;19;20066;-67
2022/09/09 15:09:05;;;;;;;6.38;1.17;;;20.70;72.10;;;;;;9170722;19;20019;-67
2022/09/09 15:12:08;;;;;;;4.65;1.10;;;20.70;72.10;;;;;;9170523;19;20024;-70
2022/09/09 15:15:12;;;;;;;11.02;2.30;;;20.70;72.10;;;;;;9168964;19;20021;-70
2022/09/09 15:18:16;;;;;;;4.70;1.30;;;20.70;72.10;;;;;;9167458;19;20089;-68
2022/09/09 15:21:22;;;;;;;8.88;1.63;;;20.70;72.00;;;;;;9164022;19;20010;-69
2022/09/09 15:24:27;;;;;;;6.03;1.92;;;20.70;72.00;;;;;;9162019;19;20014;-68
2022/09/09 15:27:31;;;;;;;3.08;1.30;;;20.70;72.10;;;;;;9166832;19;20021;-66
2022/09/09 15:30:35;;;;;;;9.80;1.70;;;20.70;72.20;;;;;;9168375;19;20014;-70
2022/09/09 15:33:39;;;;;;;4.97;1.67;;;20.60;72.00;;;;;;9172082;19;20018;-67
2022/09/09 15:36:45;;;;;;;4.38;1.33;;;20.60;72.10;;;;;;9168485;19;20018;-64
2022/09/09 15:39:51;;;;;;;3.08;1.33;;;20.60;72.10;;;;;;9175455;19;20022;-68
2022/09/09 15:42:55;;;;;;;7.93;1.85;;;20.60;72.20;;;;;;9170425;19;20370;-70
2022/09/09 15:46:08;;;;;;;5.78;1.35;;;20.60;72.80;;;;;;9174775;19;20485;-70
2022/09/09 15:49:14;;;;;;;5.20;1.60;;;20.50;72.20;;;;;;9172991;19;20358;-70
2022/09/09 15:52:18;;;;;;;2.67;1.30;;;20.50;72.10;;;;;;9174104;19;20475;-69
2022/09/09 15:55:24;;;;;;;;;;;20.50;72.20;;;;;;9173493;19;20066;-66
2022/09/09 15:58:31;;;;;;;4.93;1.58;;;20.50;72.20;;;;;;9173027;19;19926;-67
2022/09/09 16:01:37;;;;;;;3.83;1.42;;;20.50;72.10;;;;;;9167091;19;20781;-66
2022/09/09 16:04:41;;;;;;;4.35;1.55;;;20.50;72.10;;;;;;9164575;19;20014;-68
2022/09/09 16:07:45;;;;;;;6.60;1.50;;;20.50;72.20;;;;;;9167239;19;20078;-66
2022/09/09 16:10:51;;;;;;;5.97;1.95;;;20.50;72.20;;;;;;9174301;19;20517;-67
2022/09/09 16:13:57;;;;;;;9.02;1.65;;;20.40;72.20;;;;;;9173065;19;20033;-67
2022/09/09 16:17:00;;;;;;;4.85;1.40;;;20.40;72.20;;;;;;9173748;19;20062;-68
2022/09/09 16:20:05;;;;;;;5.82;1.30;;;20.40;72.30;;;;;;9170264;19;20018;-68
2022/09/09 16:23:09;;;;;;;7.95;1.88;;;20.40;72.20;;;;;;9174040;19;20021;-67
2022/09/09 16:26:16;;;;;;;7.85;1.60;;;20.50;72.40;;;;;;9179524;19;20535;-68
2022/09/09 16:29:22;;;;;;;6.97;1.58;;;20.40;72.20;;;;;;9180087;19;20470;-67